Chicago, Illinois
Traffic Map
Current Weather Conditions
Chicago, Illinois
Few Clouds
Few Clouds
14°
Feels Like: 14°
Wind Chill: 14° Ceiling: Unl
Heat Index: 14° Visibility: 10mi
Dew Point: Wind: 13mph
Humidity: 41% Direction: 80° (E)
Pressure: 30.08in Gusts: 20mph
Raw Report DataKMDW 281853Z 08011G17KT 10SM FEW040 FEW250 14/01 A3008 RMK AO2 SLP189 T01440011
Traffic Incident Summary
Active as of:
Severity:
Category:
InformationThere was an issue retrieving the traffic information for this location. Please try a different location or try again shortly.
Advertisements
Track Severe Weather on mobile